Time;durP1;ratioP1;P1;durP2;ratioP2;P2;SDS_P1;SDS_P2;PMS_P1;PMS_P2;Temp;Humidity;BMP_temperature;BMP_pressure;BME280_temperature;BME280_humidity;BME280_pressure;Samples;Min_cycle;Max_cycle;Signal;HPM_P1;HPM_P2
2021/04/01 00:01:08;;;;;;;63.40;36.45;;;19.50;99.90;;;20.00;44.85;101832.13;5075803;28;20044;-68
2021/04/01 00:03:36;;;;;;;56.08;34.47;;;19.50;99.90;;;20.07;44.93;101841.81;5074014;28;20048;-67
2021/04/01 00:06:04;;;;;;;56.47;34.03;;;19.60;99.90;;;20.04;46.24;101838.28;5075459;28;20048;-67
2021/04/01 00:08:33;;;;;;;58.58;35.85;;;19.50;99.90;;;20.09;46.31;101834.53;5075426;28;20124;-67
2021/04/01 00:11:01;;;;;;;59.00;34.53;;;19.50;99.90;;;20.06;44.54;101806.88;5075325;28;20090;-67
2021/04/01 00:13:28;;;;;;;59.47;33.15;;;19.60;99.90;;;20.22;44.53;101827.06;5075150;28;20411;-67
2021/04/01 00:15:58;;;;;;;60.10;35.53;;;19.70;99.90;;;20.25;44.18;101833.22;5075003;28;20051;-66
2021/04/01 00:18:26;;;;;;;55.22;33.97;;;19.70;99.90;;;20.24;45.71;101836.84;5073657;28;20512;-67
2021/04/01 00:20:54;;;;;;;52.08;33.70;;;19.70;99.90;;;20.18;47.76;101830.72;5075146;28;20045;-67
2021/04/01 00:23:23;;;;;;;53.17;32.13;;;19.60;99.90;;;20.13;45.90;101830.84;5075000;28;20044;-67
2021/04/01 00:25:52;;;;;;;46.60;29.63;;;19.60;99.90;;;20.13;44.30;101832.69;5074927;28;20493;-67
2021/04/01 00:28:19;;;;;;;45.13;28.60;;;19.60;99.90;;;20.10;44.57;101832.75;5075035;28;20535;-67
2021/04/01 00:30:47;;;;;;;49.65;30.42;;;19.50;99.90;;;20.09;43.81;101833.69;5074770;28;20183;-67
2021/04/01 00:33:14;;;;;;;47.50;29.05;;;19.50;99.90;;;20.02;44.01;101826.69;5073721;28;20052;-67
2021/04/01 00:35:41;;;;;;;48.42;28.92;;;19.50;99.90;;;19.91;43.39;101829.72;5074895;28;20094;-67
2021/04/01 00:38:09;;;;;;;52.90;29.77;;;19.30;99.90;;;19.87;43.45;101824.44;5074624;28;20040;-67
2021/04/01 00:40:39;;;;;;;45.58;28.73;;;19.30;99.90;;;19.92;43.32;101822.53;5074690;28;20107;-67
2021/04/01 00:43:07;;;;;;;56.75;30.55;;;19.30;99.90;;;19.96;42.55;101822.38;5074911;28;20048;-67
2021/04/01 00:45:37;;;;;;;53.70;29.75;;;19.30;99.90;;;19.99;42.57;101833.06;5074703;28;20090;-67
2021/04/01 00:48:05;;;;;;;51.88;30.73;;;19.40;99.90;;;20.01;42.94;101830.34;5074694;28;20037;-67
2021/04/01 00:50:32;;;;;;;55.50;31.10;;;19.40;99.90;;;20.04;42.87;101825.75;5074571;28;20052;-67
2021/04/01 00:53:01;;;;;;;58.00;30.08;;;19.50;99.90;;;20.00;42.94;101824.06;5073166;28;20048;-67
2021/04/01 00:55:28;;;;;;;51.72;28.90;;;19.50;99.90;;;19.91;44.01;101821.66;5074352;28;20490;-67
2021/04/01 00:57:58;;;;;;;47.42;28.20;;;19.40;99.90;;;19.62;46.67;101827.81;5074164;28;20474;-67
2021/04/01 01:00:28;;;;;;;56.85;30.08;;;19.20;99.90;;;19.36;44.81;101819.53;5074460;28;20072;-67
2021/04/01 01:02:56;;;;;;;51.28;29.70;;;18.90;99.90;;;19.46;44.69;101822.84;5074446;28;20440;-67
2021/04/01 01:05:30;;;;;;;53.80;30.30;;;18.90;99.90;;;19.50;44.63;101824.53;5072956;28;20055;-67
2021/04/01 01:07:58;;;;;;;49.03;29.30;;;18.90;99.90;;;18.78;45.20;101696.69;5074209;28;20049;-67
2021/04/01 01:10:29;;;;;;;52.83;29.23;;;18.90;99.90;;;19.31;45.25;101791.03;5074016;28;20127;-67
2021/04/01 01:12:57;;;;;;;49.78;29.08;;;18.90;99.90;;;19.31;45.01;101848.25;5074067;28;20040;-67
2021/04/01 01:15:26;;;;;;;50.13;29.63;;;18.80;99.90;;;19.30;45.96;101834.88;5074115;28;20119;-67
2021/04/01 01:17:57;;;;;;;50.47;31.42;;;18.80;99.90;;;19.42;45.84;101832.78;5072528;28;20060;-67
2021/04/01 01:20:27;;;;;;;55.50;30.95;;;18.90;99.90;;;19.39;45.95;101829.31;5073832;28;20458;-67
2021/04/01 01:23:17;;;;;;;49.72;30.17;;;18.90;99.90;;;19.26;46.48;101835.88;5074047;28;20166;-67
2021/04/01 01:25:46;;;;;;;60.40;31.20;;;18.70;99.90;;;19.16;46.93;101834.34;5074119;28;20467;-67
2021/04/01 01:28:13;;;;;;;52.30;30.98;;;18.70;99.90;;;18.82;47.98;101836.91;5072475;28;20122;-67
2021/04/01 01:30:41;;;;;;;51.20;31.83;;;18.40;99.90;;;18.79;48.26;101827.13;5073693;28;20071;-67
2021/04/01 01:33:09;;;;;;;50.00;31.55;;;18.30;99.90;;;18.78;48.99;101832.53;5073604;28;20131;-67
2021/04/01 01:35:37;;;;;;;53.08;32.83;;;18.30;99.90;;;18.46;50.03;101833.25;5073442;28;20040;-68
2021/04/01 01:38:07;;;;;;;52.17;31.83;;;18.00;99.90;;;18.51;49.96;101836.72;5073727;28;20053;-67
2021/04/01 01:40:36;;;;;;;53.00;30.85;;;18.00;99.90;;;18.32;50.09;101840.66;5073692;28;20079;-67
2021/04/01 01:43:08;;;;;;;54.13;32.33;;;17.80;99.90;;;18.31;50.40;101844.25;5073456;28;20088;-67
2021/04/01 01:45:36;;;;;;;51.42;30.75;;;17.80;99.90;;;18.07;51.48;101836.72;5073435;28;20064;-67
2021/04/01 01:48:05;;;;;;;54.22;32.58;;;17.70;99.90;;;17.84;52.66;101847.88;5073178;28;20128;-67
2021/04/01 01:50:35;;;;;;;52.45;31.23;;;17.40;99.90;;;18.09;52.20;101850.97;5073469;28;20048;-67
2021/04/01 01:53:08;;;;;;;50.13;30.90;;;17.60;99.90;;;17.87;52.96;101857.63;5073005;28;20045;-67
2021/04/01 01:55:38;;;;;;;47.70;30.75;;;17.40;99.90;;;17.97;52.71;101844.03;5072082;28;20053;-67
2021/04/01 01:58:08;;;;;;;53.80;33.10;;;17.40;99.90;;;17.88;52.58;101851.38;5073288;28;20064;-67
2021/04/01 02:00:39;;;;;;;53.30;32.78;;;17.40;99.90;;;17.85;52.09;101846.06;5072951;28;20066;-67
2021/04/01 02:03:09;;;;;;;57.03;34.05;;;17.40;99.90;;;17.92;51.81;101850.41;5073079;28;20555;-67
2021/04/01 02:05:41;;;;;;;57.85;33.45;;;17.40;99.90;;;17.88;51.44;101852.25;5073211;28;20074;-67
2021/04/01 02:08:11;;;;;;;58.92;35.55;;;17.50;99.90;;;17.86;51.44;101827.31;5073020;28;20048;-67
2021/04/01 02:10:42;;;;;;;60.83;36.60;;;17.50;99.90;;;18.00;50.45;101869.88;5072994;28;20402;-67
2021/04/01 02:13:12;;;;;;;60.53;34.78;;;17.60;99.90;;;17.85;50.63;101854.97;5072796;28;20094;-67
2021/04/01 02:15:42;;;;;;;61.57;35.97;;;17.50;99.90;;;17.51;51.33;101864.53;5073143;28;20036;-67
2021/04/01 02:18:12;;;;;;;61.65;36.22;;;17.10;99.90;;;17.69;50.81;101858.84;5072628;28;20299;-67
2021/04/01 02:20:42;;;;;;;68.63;37.72;;;17.20;99.90;;;17.39;51.15;101861.13;5072930;28;20107;-67
2021/04/01 02:23:14;;;;;;;65.85;37.30;;;17.00;99.90;;;17.36;51.12;101866.53;5072886;28;20050;-67
2021/04/01 02:25:43;;;;;;;62.92;37.45;;;16.90;99.90;;;17.11;51.78;101856.22;5072652;28;20048;-67
2021/04/01 02:28:13;;;;;;;68.00;37.75;;;16.70;99.90;;;17.08;51.72;101860.72;5072828;28;20425;-68
2021/04/01 02:30:44;;;;;;;74.07;38.60;;;16.60;99.90;;;17.04;51.87;101856.31;5072834;28;20068;-67
2021/04/01 02:33:13;;;;;;;66.43;37.67;;;16.60;99.90;;;17.14;51.83;101861.53;5072712;28;20040;-67
2021/04/01 02:35:41;;;;;;;70.85;39.53;;;16.70;99.90;;;17.24;51.13;101858.69;5088257;28;20052;-67
2021/04/01 02:38:08;;;;;;;73.20;39.85;;;16.70;99.90;;;17.39;50.66;101856.66;5072369;28;20082;-67
2021/04/01 02:40:37;;;;;;;69.22;37.55;;;16.90;99.90;;;17.35;50.60;101862.06;5072785;28;20040;-67
2021/04/01 02:43:06;;;;;;;71.18;39.00;;;16.90;99.90;;;17.42;50.30;101869.13;5072700;28;20089;-67
2021/04/01 02:45:34;;;;;;;70.78;39.33;;;16.90;99.90;;;17.41;50.13;101856.63;5072622;28;20436;-67
2021/04/01 02:48:02;;;;;;;77.28;40.67;;;17.00;99.90;;;17.39;50.13;101861.13;5071269;28;20040;-68
2021/04/01 02:50:29;;;;;;;69.10;38.40;;;16.90;99.90;;;17.40;49.88;101860.22;5072330;28;20036;-67
2021/04/01 02:52:57;;;;;;;75.32;39.47;;;16.90;99.90;;;17.49;49.44;101849.41;5072702;28;20036;-67
2021/04/01 02:55:24;;;;;;;69.05;38.28;;;17.00;99.90;;;17.53;49.10;101852.00;5072568;28;20097;-67
2021/04/01 02:57:51;;;;;;;68.68;38.72;;;17.10;99.90;;;17.36;50.34;101855.84;5072335;28;20067;-67
2021/04/01 03:00:24;;;;;;;66.38;36.65;;;17.00;99.90;;;17.17;51.37;101857.03;5072423;28;20048;-67
2021/04/01 03:02:55;;;;;;;68.07;38.72;;;16.80;99.90;;;17.13;51.94;101853.50;5072370;28;20456;-67
2021/04/01 03:05:23;;;;;;;66.70;39.80;;;16.60;99.90;;;17.18;51.25;101859.69;5075743;28;20041;-67
2021/04/01 03:07:50;;;;;;;66.15;37.78;;;16.70;99.90;;;17.10;51.64;101853.56;5075041;28;20127;-68
2021/04/01 03:10:18;;;;;;;71.22;39.58;;;16.60;99.90;;;17.24;50.78;101848.00;5076487;28;20044;-67
2021/04/01 03:12:48;;;;;;;71.22;39.33;;;16.70;99.90;;;17.14;51.33;101855.28;5076362;28;20450;-67
2021/04/01 03:15:16;;;;;;;65.65;37.60;;;16.70;99.90;;;16.97;52.55;101858.22;5076330;28;20086;-67
2021/04/01 03:17:44;;;;;;;65.72;37.25;;;16.50;99.90;;;16.92;52.64;101861.84;5074960;28;20080;-67
2021/04/01 03:20:13;;;;;;;71.80;38.85;;;16.40;99.90;;;16.77;52.51;101854.06;5074857;28;20052;-68
2021/04/01 03:22:43;;;;;;;70.05;39.83;;;16.30;99.90;;;16.62;52.76;101864.97;5074891;28;20075;-67
2021/04/01 03:25:14;;;;;;;64.25;37.60;;;16.20;99.90;;;16.51;53.54;101858.88;5074993;28;20044;-67
2021/04/01 03:27:42;;;;;;;68.83;37.57;;;16.00;99.90;;;16.48;54.13;101857.13;5074709;28;20052;-67
2021/04/01 03:30:12;;;;;;;61.92;36.58;;;16.00;99.90;;;16.15;54.73;101809.44;5074552;28;20381;-67
2021/04/01 03:32:43;;;;;;;66.65;39.58;;;15.90;99.90;;;16.41;54.53;101855.41;5074935;28;20505;-67
2021/04/01 03:35:14;;;;;;;69.15;38.80;;;15.90;99.90;;;16.40;54.02;101850.94;5074758;28;20051;-67
2021/04/01 03:37:43;;;;;;;63.72;37.70;;;15.90;99.90;;;16.13;55.34;101852.19;5074639;28;20098;-67
2021/04/01 03:40:12;;;;;;;72.00;39.83;;;15.70;99.90;;;16.17;55.30;101855.69;5074487;28;20045;-67
2021/04/01 03:42:39;;;;;;;71.82;40.22;;;15.60;99.90;;;16.13;55.32;101861.97;5074427;28;20409;-67
2021/04/01 03:45:11;;;;;;;74.65;40.90;;;15.60;99.90;;;16.09;55.94;101855.78;5074448;28;20075;-66
2021/04/01 03:47:39;;;;;;;73.03;41.47;;;15.60;99.90;;;16.09;55.74;101863.78;5074618;28;20041;-67
2021/04/01 03:50:10;;;;;;;68.55;39.95;;;15.60;99.90;;;15.89;56.42;101856.91;5074499;28;20072;-67
2021/04/01 03:52:39;;;;;;;64.90;38.38;;;15.40;99.90;;;15.62;56.81;101847.38;5074767;28;20032;-67
2021/04/01 03:55:19;;;;;;;68.28;39.67;;;15.20;99.90;;;15.67;57.04;101858.00;5074273;28;20049;-67
2021/04/01 03:57:48;;;;;;;75.72;40.70;;;15.10;99.90;;;15.74;56.67;101862.38;5074531;28;20047;-68
2021/04/01 04:00:20;;;;;;;71.32;40.58;;;15.20;99.90;;;15.66;57.73;101862.44;5074275;28;20153;-67
2021/04/01 04:02:57;;;;;;;73.10;40.58;;;15.10;99.90;;;14.83;57.47;101723.66;5074332;28;20102;-67
2021/04/01 04:05:37;;;;;;;73.25;39.58;;;15.10;99.90;;;15.70;57.71;101860.66;5072943;28;20118;-67
2021/04/01 04:08:20;;;;;;;74.75;40.47;;;15.20;99.90;;;15.80;57.30;101851.63;5074301;28;20053;-66
2021/04/01 04:10:58;;;;;;;72.53;39.88;;;15.30;99.90;;;15.70;57.44;101866.84;5074287;28;20405;-66
2021/04/01 04:13:31;;;;;;;68.50;37.08;;;15.20;99.90;;;15.59;57.83;101868.75;5074186;28;20059;-64
2021/04/01 04:15:59;;;;;;;69.05;38.67;;;15.10;99.90;;;15.60;58.07;101870.50;5072352;28;20049;-66
2021/04/01 04:18:27;;;;;;;64.93;38.15;;;15.10;99.90;;;15.63;57.53;101874.94;5053577;28;617981;-67
2021/04/01 04:20:55;;;;;;;68.75;37.38;;;15.10;99.90;;;15.54;57.78;101859.91;5075582;28;20054;-66
2021/04/01 04:23:24;;;;;;;68.00;38.97;;;15.00;99.90;;;15.43;57.34;101842.25;5075106;28;20098;-66
2021/04/01 04:25:53;;;;;;;66.20;36.65;;;15.00;99.90;;;15.58;57.36;101869.63;5075033;28;20509;-67
2021/04/01 04:28:27;;;;;;;57.40;34.50;;;15.00;99.90;;;15.58;57.41;101863.44;5075346;28;20075;-67
2021/04/01 04:30:55;;;;;;;58.72;34.90;;;15.10;99.90;;;15.57;57.93;101870.53;5074883;28;20428;-67
2021/04/01 04:33:22;;;;;;;61.30;34.30;;;15.10;99.90;;;15.48;58.26;101861.75;5074843;28;20044;-67
2021/04/01 04:35:50;;;;;;;56.83;34.38;;;15.10;99.90;;;15.50;58.69;101862.59;5074950;28;20398;-68
2021/04/01 04:38:18;;;;;;;67.05;37.80;;;15.00;99.90;;;15.47;58.28;101859.94;5074683;28;20072;-68
2021/04/01 04:40:46;;;;;;;66.32;37.08;;;15.00;99.90;;;15.28;58.28;101846.75;5073422;28;20489;-68
2021/04/01 04:43:14;;;;;;;64.15;37.15;;;14.90;99.90;;;15.42;58.07;101872.44;5073234;28;20048;-68
2021/04/01 04:45:41;;;;;;;68.32;37.05;;;14.90;99.90;;;15.37;58.23;101867.09;5074794;28;20048;-67
2021/04/01 04:48:09;;;;;;;67.53;37.53;;;14.80;99.90;;;15.42;57.96;101870.69;5074627;28;20044;-67
2021/04/01 04:50:37;;;;;;;67.57;38.15;;;14.90;99.90;;;15.50;57.59;101871.50;5074504;28;20040;-67
2021/04/01 04:53:05;;;;;;;65.72;38.53;;;14.90;99.90;;;15.47;57.50;101886.63;5074552;28;20119;-67
2021/04/01 04:55:32;;;;;;;61.80;38.17;;;15.00;99.90;;;15.55;57.54;101887.44;5074342;28;20033;-67
2021/04/01 04:58:06;;;;;;;70.30;39.72;;;15.00;99.90;;;15.51;57.82;101881.25;5074282;28;20533;-67
2021/04/01 05:05:56;;;;;;;68.00;37.97;;;15.00;99.90;;;15.46;58.90;101885.75;5074144;28;20123;-68
2021/04/01 05:08:24;;;;;;;73.03;39.22;;;14.90;99.90;;;15.43;58.95;101882.25;5073056;28;20036;-68
2021/04/01 05:10:52;;;;;;;73.10;42.67;;;14.90;99.90;;;15.35;59.17;101893.78;5074225;28;20048;-67
2021/04/01 05:13:21;;;;;;;69.15;40.97;;;14.90;99.90;;;15.40;58.74;101893.78;5074044;28;20068;-68
2021/04/01 05:15:49;;;;;;;72.68;41.38;;;14.90;99.90;;;15.48;58.59;101888.41;5074024;28;20044;-68
2021/04/01 05:18:23;;;;;;;68.28;43.05;;;14.90;99.90;;;15.51;58.67;101902.59;5073674;28;20494;-67
2021/04/01 05:20:52;;;;;;;75.03;44.45;;;15.00;99.90;;;15.56;58.56;101907.91;5073938;28;20036;-67
2021/04/01 05:23:36;;;;;;;73.35;44.67;;;15.00;99.90;;;14.86;58.82;101780.47;5074011;28;20047;-67
2021/04/01 05:28:52;;;;;;;84.68;48.05;;;15.00;99.90;;;15.61;58.85;101908.72;5042778;28;20052;-67
2021/04/01 05:31:30;;;;;;;78.63;47.53;;;15.10;99.90;;;15.50;59.21;101895.50;5073851;28;20450;-68
2021/04/01 05:33:58;;;;;;;;;;;15.10;99.90;;;15.65;59.37;101923.81;5074184;28;20098;-68
2021/04/01 05:36:27;;;;;;;100.72;59.80;;;15.20;99.90;;;15.70;59.50;101920.22;5073551;28;19991;-67
2021/04/01 05:38:56;;;;;;;120.70;72.13;;;15.20;99.90;;;15.45;59.24;101864.44;5073407;28;20094;-67
2021/04/01 05:41:27;;;;;;;122.20;76.85;;;15.30;99.90;;;15.88;58.56;101924.50;5073329;28;20079;-68
2021/04/01 05:44:07;;;;;;;123.78;77.50;;;15.40;99.90;;;15.93;58.56;101926.22;5073327;28;20056;-67
2021/04/01 05:46:39;;;;;;;127.28;79.18;;;15.50;99.90;;;15.90;58.96;101931.59;5073563;28;20044;-67
2021/04/01 05:49:25;;;;;;;130.70;82.82;;;15.50;99.90;;;15.88;58.75;101930.72;5073382;28;20059;-67
2021/04/01 05:57:55;;;;;;;138.38;86.88;;;15.30;99.90;;;15.68;58.79;101937.16;5073567;28;20047;-67
2021/04/01 06:00:50;;;;;;;134.07;86.43;;;15.30;99.90;;;15.56;58.99;101939.91;5072848;28;20040;-67
2021/04/01 06:03:33;;;;;;;136.32;87.53;;;15.30;99.90;;;15.58;59.34;101954.13;5073189;28;20405;-67
2021/04/01 06:06:05;;;;;;;140.27;88.00;;;15.20;99.90;;;15.49;59.27;101963.06;5072045;28;20052;-67
2021/04/01 06:08:41;;;;;;;137.80;88.03;;;15.10;99.90;;;15.45;59.27;101968.44;5072938;28;20448;-67
2021/04/01 06:11:10;;;;;;;140.27;87.47;;;15.10;99.90;;;15.53;59.46;101982.56;5073189;28;20044;-67
2021/04/01 06:13:48;;;;;;;141.32;88.20;;;15.10;99.90;;;15.56;59.13;101971.91;5088655;28;20052;-67
2021/04/01 06:16:17;;;;;;;142.90;89.75;;;15.10;99.90;;;15.63;59.43;101976.28;5072899;28;20044;-66
2021/04/01 06:18:55;;;;;;;136.30;85.80;;;15.20;99.90;;;15.61;59.32;101981.66;5072609;28;20850;-67
2021/04/01 06:21:26;;;;;;;140.40;86.97;;;15.20;99.90;;;15.68;59.14;101985.16;5072726;28;20098;-67
2021/04/01 06:24:07;;;;;;;137.65;87.25;;;15.20;99.90;;;15.86;58.69;101987.66;5088415;28;20110;-67
2021/04/01 06:26:44;;;;;;;144.88;88.28;;;15.30;99.90;;;15.71;58.82;101969.13;5072917;28;20040;-67
2021/04/01 06:29:15;;;;;;;136.32;84.53;;;15.40;99.90;;;15.90;58.59;101997.41;5072672;28;20056;-68
2021/04/01 06:31:44;;;;;;;139.65;82.38;;;15.50;99.90;;;15.99;58.17;101994.66;5072336;28;20444;-67
2021/04/01 06:34:12;;;;;;;133.93;85.10;;;15.50;99.90;;;16.07;57.88;101998.16;5072697;28;20429;-67
2021/04/01 06:36:50;;;;;;;138.40;84.32;;;15.60;99.90;;;16.17;57.84;101984.72;5072353;28;20504;-68
2021/04/01 06:39:19;;;;;;;134.48;85.22;;;15.80;99.90;;;16.35;57.26;102006.81;5072510;28;20050;-67
2021/04/01 06:41:48;;;;;;;138.77;86.50;;;15.90;99.90;;;16.19;57.36;102030.09;5072343;28;20502;-67
2021/04/01 06:44:29;;;;;;;134.02;83.32;;;15.70;99.90;;;16.41;57.32;102018.31;5072319;28;20052;-68
2021/04/01 06:47:09;;;;;;;130.80;82.53;;;15.90;99.90;;;16.28;56.83;101989.94;5072270;28;20056;-67
2021/04/01 06:49:58;;;;;;;139.98;83.32;;;16.00;99.90;;;16.56;56.59;102019.97;5072529;28;20051;-67
2021/04/01 06:52:33;;;;;;;129.57;79.65;;;16.10;99.90;;;16.72;55.99;102022.47;5072391;28;20040;-68
2021/04/01 06:55:20;;;;;;;138.13;83.57;;;16.30;99.90;;;16.69;56.00;102022.50;5072592;28;20052;-67
2021/04/01 06:58:07;;;;;;;132.93;81.80;;;16.30;99.90;;;16.88;55.59;102020.50;5072338;28;20052;-67
2021/04/01 07:00:54;;;;;;;132.63;83.72;;;16.50;99.90;;;16.93;55.55;102018.66;5070832;28;20049;-68
2021/04/01 07:03:39;;;;;;;131.90;82.47;;;16.50;99.90;;;16.97;55.01;102026.63;5071179;28;20498;-68
2021/04/01 07:06:10;;;;;;;133.10;82.20;;;16.60;99.90;;;17.17;54.80;102026.38;5072461;28;20075;-67
2021/04/01 07:08:45;;;;;;;131.07;79.57;;;16.70;99.90;;;17.22;54.73;102031.66;5072260;28;20049;-67
2021/04/01 07:11:27;;;;;;;130.18;80.35;;;16.80;99.90;;;17.37;54.08;102043.03;5072084;28;20028;-67
2021/04/01 07:13:58;;;;;;;132.85;82.40;;;16.90;99.90;;;17.39;54.11;102038.56;5070932;28;20064;-67
2021/04/01 07:16:42;;;;;;;137.85;82.72;;;17.00;99.90;;;17.54;53.90;102045.50;5072352;28;20115;-67
2021/04/01 07:30:56;;;;;;;131.05;81.82;;;17.40;99.90;;;17.92;52.85;102070.81;5070872;28;20052;-67
2021/04/01 07:44:57;;;;;;;130.07;81.88;;;17.70;99.90;;;17.95;52.13;102080.59;5072112;28;20045;-67
2021/04/01 07:47:29;;;;;;;130.23;78.85;;;17.70;99.90;;;18.01;52.24;102085.84;5071894;28;20042;-67
2021/04/01 07:50:00;;;;;;;126.93;81.43;;;17.70;99.90;;;18.17;52.74;102092.75;5073060;28;20556;-66
2021/04/01 07:52:31;;;;;;;127.97;81.00;;;17.80;99.90;;;18.24;52.23;102083.69;5075384;28;20386;-66
2021/04/01 07:55:21;;;;;;;127.88;81.57;;;17.90;99.90;;;18.33;51.65;102088.88;5075039;28;20041;-67
2021/04/01 07:58:11;;;;;;;127.82;81.93;;;18.00;99.90;;;18.04;52.45;102086.69;5075500;28;20047;-67
2021/04/01 08:00:48;;;;;;;131.30;80.00;;;17.80;99.90;;;18.20;52.16;102098.03;5075248;28;20040;-67
2021/04/01 08:06:29;;;;;;;126.63;79.25;;;17.60;99.90;;;17.90;52.76;102106.56;5013288;28;20058;-67
2021/04/01 08:09:04;;;;;;;129.77;80.70;;;17.60;99.90;;;17.66;53.71;102099.75;5062556;28;20080;-67
2021/04/01 08:11:36;;;;;;;135.68;81.60;;;17.40;99.90;;;17.73;53.85;102097.91;5075019;28;20059;-66
2021/04/01 08:14:11;;;;;;;126.40;78.38;;;17.40;99.90;;;17.76;53.68;102092.47;5075191;28;20044;-66
2021/04/01 08:16:49;;;;;;;121.90;73.72;;;17.50;99.90;;;17.40;53.62;102092.97;5074813;28;20383;-66
2021/04/01 08:19:21;;;;;;;123.55;75.05;;;17.20;99.90;;;17.53;53.85;102078.53;5075051;28;20460;-66
2021/04/01 08:22:15;;;;;;;119.60;72.25;;;17.30;99.90;;;17.59;54.26;102097.19;5074925;28;20114;-67
2021/04/01 08:25:06;;;;;;;108.95;67.60;;;17.30;99.90;;;17.36;53.81;102083.19;5074855;28;20152;-66
2021/04/01 08:31:55;;;;;;;109.93;63.42;;;17.40;99.90;;;18.02;53.63;102114.41;5064604;28;20391;-66
2021/04/01 08:34:48;;;;;;;90.95;54.97;;;17.70;99.90;;;18.12;52.11;102108.00;5074613;28;20076;-67
2021/04/01 08:37:53;;;;;;;79.38;46.47;;;17.90;99.90;;;18.16;51.67;102111.50;5074795;28;20041;-67
2021/04/01 08:40:44;;;;;;;73.90;39.13;;;17.90;99.90;;;17.99;51.45;102099.28;5074590;28;20121;-67
2021/04/01 08:44:05;;;;;;;67.55;36.83;;;17.70;99.90;;;18.31;51.18;102114.81;5074830;28;20068;-67
2021/04/01 08:47:11;;;;;;;69.30;37.90;;;17.90;99.90;;;18.79;50.89;102122.03;5074597;28;20041;-67
2021/04/01 08:49:49;;;;;;;63.90;34.65;;;18.40;99.90;;;18.98;50.39;102125.28;5074598;28;20048;-67
2021/04/01 08:52:43;;;;;;;54.80;32.78;;;18.60;99.90;;;19.22;49.51;102127.50;5074587;28;20037;-68
2021/04/01 08:55:16;;;;;;;51.22;29.40;;;18.80;99.90;;;18.92;48.27;102039.59;5074486;28;20060;-67
2021/04/01 08:58:01;;;;;;;48.97;28.90;;;19.10;99.90;;;19.14;48.33;102112.47;5074309;28;20056;-67
2021/04/01 09:00:32;;;;;;;57.25;27.17;;;19.00;99.90;;;19.26;48.08;102126.50;5073847;28;20041;-67
2021/04/01 09:03:02;;;;;;;52.00;25.38;;;19.00;99.90;;;19.10;47.79;102142.97;5072848;28;20116;-67
2021/04/01 09:05:32;;;;;;;52.08;27.40;;;18.90;99.90;;;19.21;48.49;102146.31;5074069;28;20461;-67
2021/04/01 09:08:06;;;;;;;48.75;24.48;;;18.90;99.90;;;19.38;47.57;102144.19;5074047;28;20056;-67
2021/04/01 09:10:38;;;;;;;45.20;21.63;;;19.00;99.90;;;19.36;46.74;102143.34;5074300;28;20102;-67
2021/04/01 09:13:11;;;;;;;38.15;20.45;;;19.10;99.90;;;19.39;46.64;102130.78;5074212;28;20044;-67
2021/04/01 09:15:44;;;;;;;32.63;17.08;;;19.10;99.90;;;19.50;45.98;102143.97;5073963;28;20064;-67
2021/04/01 09:18:21;;;;;;;41.65;17.50;;;19.20;99.90;;;19.35;45.50;102126.38;5073062;28;20067;-67
2021/04/01 09:20:50;;;;;;;31.17;16.02;;;19.20;99.90;;;19.36;45.77;102143.34;5073806;28;20048;-67
2021/04/01 09:23:34;;;;;;;36.33;14.43;;;19.00;99.90;;;19.19;45.84;102132.94;5073877;28;20036;-67
2021/04/01 09:26:05;;;;;;;30.40;12.85;;;18.90;99.90;;;18.90;45.86;102152.25;5073914;28;20051;-67
2021/04/01 09:28:37;;;;;;;29.17;12.50;;;18.70;99.90;;;18.99;45.77;102155.69;5073857;28;20048;-67
2021/04/01 09:31:07;;;;;;;21.90;10.63;;;18.70;99.90;;;18.95;45.27;102153.97;5073550;28;20055;-67
2021/04/01 09:33:37;;;;;;;21.05;9.15;;;18.70;99.90;;;19.22;45.47;102167.72;5073700;28;20072;-67
2021/04/01 09:36:11;;;;;;;20.45;9.10;;;18.90;99.90;;;19.14;44.64;102155.41;5073267;28;20067;-67
2021/04/01 09:38:40;;;;;;;20.50;8.77;;;18.90;99.90;;;19.12;44.69;102157.22;5073464;28;20037;-67
2021/04/01 09:41:09;;;;;;;17.10;8.75;;;18.90;99.90;;;18.84;44.56;102130.91;5073264;28;20045;-67
2021/04/01 09:43:49;;;;;;;22.67;8.27;;;18.70;99.90;;;18.84;45.18;102168.44;5073364;28;20036;-67
2021/04/01 09:46:17;;;;;;;16.40;7.95;;;18.50;99.90;;;19.02;44.88;102172.59;5073536;28;20435;-67
2021/04/01 09:48:54;;;;;;;19.67;8.38;;;18.70;99.90;;;19.29;44.40;102171.19;5073273;28;20045;-66
2021/04/01 09:51:23;;;;;;;15.38;7.03;;;18.90;99.90;;;19.19;43.75;102173.16;5073237;28;20044;-66
2021/04/01 09:53:55;;;;;;;17.55;7.32;;;18.90;99.90;;;19.51;43.29;102183.31;5071373;28;20045;-67
2021/04/01 09:56:25;;;;;;;18.15;7.68;;;19.20;99.90;;;19.72;42.61;102177.50;5073310;28;20044;-67
2021/04/01 09:58:55;;;;;;;17.58;6.57;;;19.40;99.90;;;19.82;42.96;102186.25;5073317;28;20120;-67
2021/04/01 10:01:27;;;;;;;14.13;6.22;;;19.50;99.90;;;20.03;43.10;102186.69;5073036;28;20417;-67
2021/04/01 10:04:05;;;;;;;16.05;6.15;;;19.70;99.90;;;19.93;42.44;102186.91;5072971;28;20099;-68
2021/04/01 10:06:39;;;;;;;15.48;5.90;;;19.80;99.90;;;19.91;42.61;102189.63;5072968;28;20048;-67
2021/04/01 10:09:13;;;;;;;15.95;6.18;;;19.60;99.90;;;19.87;43.22;102190.59;5073228;28;20050;-67
2021/04/01 10:11:47;;;;;;;12.77;5.85;;;19.60;99.90;;;20.01;42.95;102180.44;5071677;28;20045;-68
2021/04/01 10:14:16;;;;;;;15.10;5.60;;;19.70;99.90;;;20.28;43.30;102189.72;5072386;28;20044;-67
2021/04/01 10:16:57;;;;;;;16.70;6.47;;;19.90;99.90;;;20.56;42.90;102188.13;5072642;28;20044;-67
2021/04/01 10:19:28;;;;;;;16.85;6.32;;;20.20;99.90;;;20.48;42.39;102199.06;5072650;28;20509;-67
2021/04/01 10:21:56;;;;;;;16.48;5.75;;;20.20;99.90;;;20.27;42.69;102199.56;5072740;28;20466;-67
2021/04/01 10:24:30;;;;;;;14.27;5.55;;;20.10;99.90;;;20.11;42.73;102197.25;5071277;28;20483;-67
2021/04/01 10:27:12;;;;;;;14.02;6.10;;;19.90;99.90;;;20.18;42.72;102198.88;5072534;28;20401;-67
2021/04/01 10:29:57;;;;;;;15.52;5.95;;;19.90;99.90;;;20.56;43.02;102201.56;5072498;28;20493;-67
2021/04/01 10:32:36;;;;;;;17.20;6.60;;;20.20;99.90;;;20.48;42.54;102208.94;5073022;28;20044;-67
2021/04/01 10:35:08;;;;;;;18.52;5.63;;;20.30;99.90;;;20.37;42.49;102205.63;5072661;28;20048;-67
2021/04/01 10:37:36;;;;;;;13.32;5.72;;;20.20;99.90;;;20.43;42.86;102210.84;5072342;28;20059;-67
2021/04/01 10:40:12;;;;;;;14.88;5.60;;;20.20;99.90;;;20.45;42.43;102206.31;5072475;28;20045;-67
2021/04/01 10:42:45;;;;;;;15.18;5.85;;;20.20;99.90;;;20.42;42.31;102214.47;5072760;28;20051;-67
2021/04/01 10:45:20;;;;;;;10.63;5.53;;;20.20;99.90;;;20.63;42.15;102222.88;5071128;28;20048;-67
2021/04/01 10:48:00;;;;;;;14.45;5.82;;;20.30;99.90;;;20.28;41.97;102212.09;5072451;28;20127;-68
2021/04/01 10:50:32;;;;;;;13.25;5.80;;;20.20;99.90;;;20.33;42.50;102220.94;5072366;28;20044;-68
2021/04/01 10:52:59;;;;;;;15.70;5.47;;;20.10;99.90;;;20.15;42.56;102210.56;5072458;28;20043;-66
2021/04/01 10:55:30;;;;;;;16.00;5.00;;;20.00;99.90;;;20.32;43.07;102196.78;5072376;28;20123;-67
2021/04/01 10:58:07;;;;;;;12.40;5.45;;;20.10;99.90;;;20.17;42.86;102203.34;5070881;28;20113;-67
2021/04/01 11:00:35;;;;;;;11.25;5.28;;;19.90;99.90;;;20.27;43.07;102210.31;5071714;28;20040;-66
2021/04/01 11:03:07;;;;;;;12.18;5.30;;;20.00;99.90;;;20.51;43.39;102211.56;5072467;28;20048;-66
2021/04/01 11:05:38;;;;;;;9.98;5.10;;;20.20;99.90;;;20.88;42.85;102225.00;5071171;28;20102;-66
2021/04/01 11:08:07;;;;;;;10.48;4.68;;;20.50;99.90;;;21.22;41.93;102216.03;5072275;28;20056;-66